Time;durP1;ratioP1;P1;durP2;ratioP2;P2;SDS_P1;SDS_P2;PMS_P1;PMS_P2;Temp;Humidity;BMP_temperature;BMP_pressure;BME280_temperature;BME280_humidity;BME280_pressure;Samples;Min_cycle;Max_cycle;Signal;HPM_P1;HPM_P2
2022/02/11 00:00:39;;;;;;;;;24.00;17.75;;;;;;;;4940299;28;47193;-94
2022/02/11 00:05:53;;;;;;;;;23.50;19.00;;;;;;;;4959080;28;45356;-93
2022/02/11 00:08:18;;;;;;;;;21.25;19.75;;;;;;;;4961845;28;45275;-94
2022/02/11 00:10:43;;;;;;;;;20.75;17.75;;;;;;;;4973180;28;47228;-94
2022/02/11 00:13:09;;;;;;;;;19.75;17.00;;;;;;;;4957217;28;45291;-94
2022/02/11 00:15:41;;;;;;;;;17.00;14.00;;;;;;;;4942082;28;45409;-94
2022/02/11 00:18:09;;;;;;;;;19.50;18.25;;;;;;;;4941103;28;45497;-95
2022/02/11 00:20:35;;;;;;;;;22.00;15.50;;;;;;;;4941235;28;47918;-94
2022/02/11 00:23:01;;;;;;;;;13.75;12.50;;;;;;;;4968613;28;45356;-94
2022/02/11 00:25:29;;;;;;;;;24.00;17.50;;;;;;;;4996156;28;45038;-95
2022/02/11 00:36:09;;;;;;;;;21.25;21.25;;;;;;;;4964452;28;45522;-94
2022/02/11 01:03:04;;;;;;;;;17.00;16.00;;;;;;;;4981139;28;45478;-95
2022/02/11 01:05:30;;;;;;;;;18.00;17.00;;;;;;;;4961796;28;45329;-94
2022/02/11 01:07:56;;;;;;;;;20.25;17.25;;;;;;;;4944552;28;45316;-94
2022/02/11 01:10:23;;;;;;;;;19.50;17.50;;;;;;;;4959537;28;45601;-95
2022/02/11 01:12:48;;;;;;;;;20.75;19.25;;;;;;;;4959376;28;46861;-94
2022/02/11 01:15:14;;;;;;;;;23.75;20.25;;;;;;;;4955959;28;45919;-95
2022/02/11 01:17:54;;;;;;;;;22.25;19.75;;;;;;;;4983381;28;45672;-95
2022/02/11 01:23:24;;;;;;;;;15.00;12.00;;;;;;;;4975702;28;45784;-94
2022/02/11 01:33:51;;;;;;;;;20.25;15.50;;;;;;;;4956817;28;45523;-94
2022/02/11 01:49:48;;;;;;;;;23.50;21.75;;;;;;;;4938379;28;45249;-94
2022/02/11 02:14:02;;;;;;;;;15.00;14.75;;;;;;;;4879737;29;45343;-95
2022/02/11 02:27:04;;;;;;;;;15.75;14.75;;;;;;;;4926847;28;45547;-95
2022/02/11 02:59:28;;;;;;;;;25.50;20.50;;;;;;;;4880551;29;45899;-94
2022/02/11 03:02:03;;;;;;;;;22.50;18.75;;;;;;;;4880372;29;45834;-94
2022/02/11 03:16:08;;;;;;;;;21.50;18.25;;;;;;;;4881810;29;45805;-94
2022/02/11 03:34:49;;;;;;;;;21.00;19.50;;;;;;;;4958792;28;45395;-94
2022/02/11 03:59:35;;;;;;;;;24.50;15.50;;;;;;;;4958054;28;45585;-94
2022/02/11 04:55:55;;;;;;;;;20.25;18.75;;;;;;;;4916776;28;45410;-94
2022/02/11 05:01:07;;;;;;;;;17.25;14.75;;;;;;;;4916183;28;45374;-93
2022/02/11 05:03:32;;;;;;;;;16.75;14.25;;;;;;;;4916804;28;45524;-94
2022/02/11 05:05:58;;;;;;;;;14.25;13.00;;;;;;;;4916439;28;45546;-94
2022/02/11 05:08:28;;;;;;;;;15.50;15.50;;;;;;;;4900821;28;47566;-94
2022/02/11 05:10:54;;;;;;;;;14.50;14.50;;;;;;;;4913263;28;45930;-94
2022/02/11 05:13:20;;;;;;;;;15.75;14.75;;;;;;;;4897713;28;45610;-94
2022/02/11 05:15:45;;;;;;;;;19.00;16.00;;;;;;;;4937654;28;45529;-94
2022/02/11 05:18:11;;;;;;;;;22.75;18.50;;;;;;;;4961965;28;48004;-94
2022/02/11 05:20:37;;;;;;;;;14.50;12.50;;;;;;;;4959020;28;45598;-93
2022/02/11 05:23:09;;;;;;;;;20.50;15.75;;;;;;;;4959009;28;45343;-94
2022/02/11 05:25:37;;;;;;;;;22.25;17.75;;;;;;;;4958580;28;45491;-94
2022/02/11 05:28:06;;;;;;;;;13.75;13.75;;;;;;;;4958869;28;47496;-94
2022/02/11 05:30:33;;;;;;;;;15.75;15.25;;;;;;;;4958620;28;45929;-93
2022/02/11 05:33:02;;;;;;;;;19.00;14.00;;;;;;;;4958459;28;45668;-94
2022/02/11 05:35:27;;;;;;;;;18.50;15.25;;;;;;;;4958800;28;45269;-95
2022/02/11 05:37:53;;;;;;;;;21.75;15.25;;;;;;;;4954891;28;47172;-94
2022/02/11 05:40:20;;;;;;;;;17.00;16.75;;;;;;;;4958332;28;45417;-94
2022/02/11 05:42:45;;;;;;;;;17.25;14.50;;;;;;;;4958994;28;45502;-94
2022/02/11 05:45:11;;;;;;;;;19.75;15.00;;;;;;;;4976080;28;45453;-94
2022/02/11 05:47:36;;;;;;;;;20.25;17.75;;;;;;;;4957890;28;46836;-94
2022/02/11 05:50:04;;;;;;;;;19.50;15.50;;;;;;;;4957905;28;45507;-94
2022/02/11 05:52:30;;;;;;;;;21.75;17.75;;;;;;;;4958801;28;45497;-94
2022/02/11 05:54:56;;;;;;;;;18.00;14.00;;;;;;;;4958916;28;45522;-94
2022/02/11 05:57:21;;;;;;;;;21.00;15.50;;;;;;;;4958750;28;47189;-94
2022/02/11 05:59:49;;;;;;;;;18.50;15.00;;;;;;;;4958667;28;45701;-93
2022/02/11 06:02:14;;;;;;;;;16.00;13.75;;;;;;;;4958842;28;45420;-94
2022/02/11 06:04:40;;;;;;;;;21.75;16.75;;;;;;;;4958451;28;45289;-94
2022/02/11 06:07:05;;;;;;;;;14.00;14.00;;;;;;;;4958076;28;48102;-94
2022/02/11 06:09:33;;;;;;;;;22.25;22.25;;;;;;;;4957505;28;45453;-94
2022/02/11 06:11:58;;;;;;;;;21.50;17.75;;;;;;;;4958274;28;45547;-93
2022/02/11 06:14:23;;;;;;;;;23.50;22.00;;;;;;;;4954842;28;45541;-95
2022/02/11 06:16:49;;;;;;;;;17.50;16.75;;;;;;;;4963091;28;47085;-94
2022/02/11 06:19:14;;;;;;;;;17.00;15.00;;;;;;;;4977863;28;45486;-94
2022/02/11 06:21:39;;;;;;;;;17.75;15.25;;;;;;;;4955273;28;45346;-94
2022/02/11 06:24:05;;;;;;;;;22.00;18.00;;;;;;;;4984948;28;45490;-94
2022/02/11 06:26:30;;;;;;;;;23.75;20.75;;;;;;;;4958116;28;47540;-94
2022/02/11 06:28:58;;;;;;;;;24.25;20.75;;;;;;;;4959528;28;45647;-94
2022/02/11 06:31:24;;;;;;;;;22.25;21.50;;;;;;;;4961375;28;45413;-94
2022/02/11 06:33:50;;;;;;;;;20.50;17.75;;;;;;;;4943112;28;45253;-94
2022/02/11 06:36:15;;;;;;;;;22.25;20.00;;;;;;;;4960856;28;47546;-94
2022/02/11 06:38:40;;;;;;;;;22.00;20.75;;;;;;;;4960611;28;45505;-94
2022/02/11 06:41:08;;;;;;;;;23.75;20.25;;;;;;;;4960145;28;45422;-94
2022/02/11 06:43:33;;;;;;;;;20.00;18.50;;;;;;;;4960925;28;45511;-94
2022/02/11 06:45:59;;;;;;;;;18.50;16.25;;;;;;;;4961432;28;47173;-93
2022/02/11 06:48:25;;;;;;;;;23.00;21.50;;;;;;;;4961191;28;45866;-93
2022/02/11 06:50:54;;;;;;;;;26.50;19.00;;;;;;;;4960892;28;45782;-94
2022/02/11 06:53:20;;;;;;;;;22.25;21.75;;;;;;;;4954793;28;45236;-94
2022/02/11 06:55:45;;;;;;;;;24.00;22.00;;;;;;;;4945104;28;48127;-94
2022/02/11 06:58:10;;;;;;;;;26.75;23.25;;;;;;;;4961104;28;45281;-93
2022/02/11 07:00:38;;;;;;;;;22.50;19.25;;;;;;;;4960902;28;45335;-94
2022/02/11 07:03:03;;;;;;;;;23.25;21.25;;;;;;;;4960556;28;45483;-94
2022/02/11 07:05:29;;;;;;;;;20.75;19.25;;;;;;;;4993762;28;48164;-94
2022/02/11 07:07:54;;;;;;;;;19.00;16.75;;;;;;;;4992541;28;45425;-94
2022/02/11 07:10:20;;;;;;;;;24.50;22.75;;;;;;;;4960835;28;45402;-94
2022/02/11 07:12:45;;;;;;;;;26.75;17.75;;;;;;;;4977415;28;45422;-94
2022/02/11 07:15:10;;;;;;;;;22.75;22.50;;;;;;;;4968425;28;46421;-93
2022/02/11 07:17:36;;;;;;;;;21.50;18.00;;;;;;;;4960890;28;45512;-95
2022/02/11 07:20:01;;;;;;;;;26.25;25.00;;;;;;;;4967304;28;45330;-94
2022/02/11 07:22:34;;;;;;;;;33.25;27.00;;;;;;;;4961417;28;46006;-94
2022/02/11 07:24:59;;;;;;;;;28.50;25.00;;;;;;;;4959945;28;47430;-86
2022/02/11 07:27:24;;;;;;;;;25.50;25.50;;;;;;;;4967451;28;45450;-85
2022/02/11 07:29:50;;;;;;;;;29.50;24.50;;;;;;;;4971324;28;45504;-84
2022/02/11 07:32:15;;;;;;;;;25.75;23.50;;;;;;;;4972111;28;45465;-86
2022/02/11 07:34:40;;;;;;;;;25.75;22.75;;;;;;;;4984474;28;46600;-85
2022/02/11 07:37:06;;;;;;;;;28.25;23.75;;;;;;;;4975691;28;45399;-85
2022/02/11 07:39:31;;;;;;;;;29.50;22.75;;;;;;;;4960481;28;45523;-85
2022/02/11 07:41:56;;;;;;;;;29.25;25.50;;;;;;;;4971985;28;46931;-86
2022/02/11 07:44:21;;;;;;;;;26.75;25.00;;;;;;;;4971267;28;46294;-86
2022/02/11 07:46:48;;;;;;;;;31.75;25.00;;;;;;;;4971698;28;45630;-86
2022/02/11 07:49:13;;;;;;;;;25.25;19.50;;;;;;;;4978368;28;45501;-85
2022/02/11 07:51:38;;;;;;;;;18.50;18.00;;;;;;;;4981002;28;45592;-84
2022/02/11 07:54:03;;;;;;;;;25.75;23.50;;;;;;;;4978739;28;45493;-86
2022/02/11 07:56:29;;;;;;;;;26.75;21.50;;;;;;;;4970742;28;45403;-86
2022/02/11 07:58:54;;;;;;;;;23.25;17.50;;;;;;;;4972320;28;45495;-86
2022/02/11 08:01:20;;;;;;;;;26.50;22.00;;;;;;;;4970045;28;45414;-86
2022/02/11 08:03:45;;;;;;;;;22.25;20.75;;;;;;;;4972020;28;45432;-86
2022/02/11 08:06:11;;;;;;;;;18.00;15.25;;;;;;;;4955291;28;46088;-86
2022/02/11 08:08:36;;;;;;;;;25.00;21.50;;;;;;;;4974056;28;45821;-86
2022/02/11 08:11:02;;;;;;;;;24.75;22.50;;;;;;;;4982323;28;45566;-87
2022/02/11 08:13:27;;;;;;;;;23.50;20.75;;;;;;;;4980644;28;45502;-86
2022/02/11 08:15:52;;;;;;;;;27.75;23.25;;;;;;;;4988125;28;45548;-86
2022/02/11 08:18:18;;;;;;;;;31.00;26.25;;;;;;;;4982231;28;45117;-87
2022/02/11 08:20:43;;;;;;;;;30.50;25.25;;;;;;;;4959258;28;45433;-86
2022/02/11 08:23:08;;;;;;;;;28.25;24.50;;;;;;;;4959612;28;46313;-86
2022/02/11 08:25:34;;;;;;;;;27.75;24.25;;;;;;;;4973131;28;45421;-86
2022/02/11 08:27:59;;;;;;;;;25.75;22.25;;;;;;;;4953390;28;45584;-85
2022/02/11 08:30:25;;;;;;;;;33.75;25.00;;;;;;;;4963498;28;46578;-85
2022/02/11 08:32:50;;;;;;;;;22.75;20.50;;;;;;;;4947097;28;47181;-85
2022/02/11 08:35:15;;;;;;;;;27.50;22.00;;;;;;;;4952923;28;45498;-85
2022/02/11 08:37:40;;;;;;;;;33.75;26.00;;;;;;;;4971395;28;45455;-90
2022/02/11 08:40:06;;;;;;;;;23.50;20.25;;;;;;;;4987523;28;45549;-85
2022/02/11 08:42:31;;;;;;;;;15.00;15.00;;;;;;;;4952873;28;47338;-84
2022/02/11 08:44:56;;;;;;;;;32.50;23.25;;;;;;;;4963280;28;45459;-86
2022/02/11 08:47:21;;;;;;;;;23.25;22.50;;;;;;;;4969738;28;45427;-85
2022/02/11 08:49:47;;;;;;;;;24.50;22.25;;;;;;;;4970071;28;45767;-85
2022/02/11 08:52:12;;;;;;;;;23.25;20.50;;;;;;;;4970919;28;46502;-85
2022/02/11 08:54:37;;;;;;;;;17.50;15.00;;;;;;;;4950789;28;45574;-85
2022/02/11 08:57:02;;;;;;;;;25.75;25.75;;;;;;;;4964406;28;45452;-85
2022/02/11 08:59:28;;;;;;;;;25.50;24.25;;;;;;;;4966027;28;45415;-86
2022/02/11 09:01:53;;;;;;;;;26.75;23.00;;;;;;;;4971751;28;46650;-85
2022/02/11 09:04:18;;;;;;;;;27.50;24.00;;;;;;;;4954019;28;45351;-85
2022/02/11 09:06:44;;;;;;;;;27.75;24.50;;;;;;;;4971948;28;45575;-85
2022/02/11 09:09:09;;;;;;;;;23.00;23.00;;;;;;;;4951684;28;45412;-85
2022/02/11 09:11:35;;;;;;;;;24.25;20.00;;;;;;;;4951936;28;47142;-85
2022/02/11 09:14:00;;;;;;;;;24.75;21.25;;;;;;;;4951618;28;45493;-85
2022/02/11 09:16:25;;;;;;;;;23.50;21.00;;;;;;;;4956028;28;45764;-83
2022/02/11 09:18:50;;;;;;;;;20.75;19.75;;;;;;;;4973202;28;45781;-86
2022/02/11 09:21:16;;;;;;;;;24.75;19.25;;;;;;;;4969178;28;45437;-85
2022/02/11 09:23:41;;;;;;;;;23.75;21.50;;;;;;;;4949663;28;45808;-85
2022/02/11 09:26:06;;;;;;;;;22.50;19.50;;;;;;;;4952153;28;45532;-85
2022/02/11 09:28:32;;;;;;;;;20.50;20.00;;;;;;;;4950854;28;45518;-85
2022/02/11 09:30:57;;;;;;;;;25.75;21.00;;;;;;;;4950970;28;47325;-85
2022/02/11 09:33:22;;;;;;;;;27.50;22.75;;;;;;;;4948175;28;45418;-85
2022/02/11 09:35:49;;;;;;;;;23.25;18.25;;;;;;;;4949564;28;45298;-85
2022/02/11 09:38:15;;;;;;;;;16.25;15.25;;;;;;;;4947955;28;45527;-85
2022/02/11 09:40:44;;;;;;;;;22.00;21.75;;;;;;;;4945744;28;46962;-86
2022/02/11 09:43:12;;;;;;;;;19.50;17.50;;;;;;;;4950386;28;45390;-85
2022/02/11 09:45:37;;;;;;;;;25.00;23.75;;;;;;;;4951022;28;45429;-85
2022/02/11 09:48:03;;;;;;;;;19.75;17.75;;;;;;;;4949388;28;45603;-85
2022/02/11 09:50:29;;;;;;;;;25.75;22.00;;;;;;;;4948263;28;46903;-85
2022/02/11 09:52:54;;;;;;;;;25.50;21.50;;;;;;;;4949158;28;45695;-84
2022/02/11 09:55:33;;;;;;;;;23.50;21.00;;;;;;;;4952209;28;45395;-84
2022/02/11 09:58:05;;;;;;;;;25.75;21.50;;;;;;;;4968053;28;45332;-84
2022/02/11 10:00:31;;;;;;;;;28.25;23.00;;;;;;;;4947743;28;47388;-84
2022/02/11 10:03:01;;;;;;;;;20.50;18.50;;;;;;;;4946260;28;45933;-85
2022/02/11 10:05:28;;;;;;;;;30.25;24.75;;;;;;;;4949795;28;45421;-84
2022/02/11 10:07:54;;;;;;;;;25.50;18.00;;;;;;;;4949243;28;45541;-85
2022/02/11 10:10:38;;;;;;;;;20.25;18.75;;;;;;;;4952942;28;46581;-85
2022/02/11 10:13:04;;;;;;;;;33.00;22.50;;;;;;;;4954012;28;45440;-84
2022/02/11 10:15:30;;;;;;;;;30.25;24.00;;;;;;;;4949004;28;45501;-85
2022/02/11 10:17:58;;;;;;;;;26.00;23.25;;;;;;;;4948955;28;45715;-84
2022/02/11 10:20:23;;;;;;;;;43.50;37.00;;;;;;;;4972597;28;47238;-84
2022/02/11 10:22:49;;;;;;;;;29.50;24.00;;;;;;;;4948366;28;45771;-85
2022/02/11 10:25:15;;;;;;;;;32.50;24.25;;;;;;;;4972784;28;45290;-84
2022/02/11 10:27:40;;;;;;;;;28.00;25.00;;;;;;;;4971303;28;45772;-84
2022/02/11 10:30:09;;;;;;;;;22.75;19.50;;;;;;;;4950029;28;47086;-85
2022/02/11 10:32:46;;;;;;;;;22.50;20.50;;;;;;;;4970183;28;45450;-85
2022/02/11 10:35:15;;;;;;;;;22.50;20.25;;;;;;;;4964350;28;45492;-85
2022/02/11 10:37:59;;;;;;;;;22.00;18.25;;;;;;;;4969149;28;45684;-85
2022/02/11 10:40:28;;;;;;;;;30.00;24.00;;;;;;;;4950574;28;48338;-85
2022/02/11 10:42:54;;;;;;;;;19.33;16.67;;;;;;;;4974734;28;45509;-84
2022/02/11 10:45:27;;;;;;;;;27.00;21.75;;;;;;;;4951040;28;48708;-84
2022/02/11 10:48:10;;;;;;;;;18.00;16.00;;;;;;;;4949380;28;45662;-84
2022/02/11 10:50:36;;;;;;;;;21.75;19.00;;;;;;;;4966945;28;46732;-85
2022/02/11 10:53:01;;;;;;;;;16.25;15.75;;;;;;;;4949728;28;45475;-85
2022/02/11 10:55:26;;;;;;;;;19.25;15.25;;;;;;;;4955567;28;45433;-85
2022/02/11 10:57:54;;;;;;;;;15.33;15.33;;;;;;;;4971504;28;45449;-84
2022/02/11 11:00:21;;;;;;;;;21.00;19.25;;;;;;;;4949944;28;47702;-84
2022/02/11 11:02:46;;;;;;;;;20.50;17.75;;;;;;;;4967423;28;45415;-84
2022/02/11 11:05:12;;;;;;;;;18.25;15.50;;;;;;;;4950699;28;45538;-85
2022/02/11 11:07:38;;;;;;;;;19.67;17.67;;;;;;;;4951917;28;45457;-85
2022/02/11 11:10:06;;;;;;;;;17.67;15.67;;;;;;;;4970350;28;45392;-83
2022/02/11 11:12:34;;;;;;;;;13.67;12.33;;;;;;;;4968808;28;45382;-83
2022/02/11 11:15:00;;;;;;;;;15.00;13.33;;;;;;;;4970550;28;45373;-84
2022/02/11 11:17:26;;;;;;;;;14.33;13.00;;;;;;;;4970979;28;45489;-84
2022/02/11 11:19:52;;;;;;;;;11.67;9.33;;;;;;;;4972161;28;47498;-84
2022/02/11 11:22:24;;;;;;;;;19.75;17.25;;;;;;;;4969637;28;45430;-84
2022/02/11 11:24:49;;;;;;;;;15.00;13.50;;;;;;;;4974065;28;45449;-84
2022/02/11 11:27:33;;;;;;;;;16.00;15.67;;;;;;;;4973876;28;45522;-84
2022/02/11 11:30:17;;;;;;;;;16.33;15.67;;;;;;;;4952308;28;47391;-84
2022/02/11 11:33:02;;;;;;;;;14.00;14.00;;;;;;;;4952276;28;45430;-84
2022/02/11 11:35:27;;;;;;;;;14.67;12.00;;;;;;;;4978096;28;45438;-84
2022/02/11 11:38:11;;;;;;;;;11.67;9.00;;;;;;;;4970784;28;45444;-84
2022/02/11 11:40:37;;;;;;;;;13.00;7.00;;;;;;;;4956041;28;47521;-84
2022/02/11 11:43:12;;;;;;;;;7.00;7.00;;;;;;;;4957231;28;45429;-84
2022/02/11 11:45:39;;;;;;;;;7.33;6.33;;;;;;;;4971280;28;45424;-84
2022/02/11 11:48:14;;;;;;;;;8.00;4.00;;;;;;;;4971159;28;45562;-84
2022/02/11 11:50:40;;;;;;;;;8.00;6.67;;;;;;;;4972912;28;45617;-84
2022/02/11 11:53:21;;;;;;;;;8.00;7.00;;;;;;;;4970711;28;45561;-84
2022/02/11 11:55:46;;;;;;;;;8.00;7.33;;;;;;;;4972026;28;45428;-84
2022/02/11 11:58:27;;;;;;;;;5.67;4.00;;;;;;;;4974877;28;45605;-84
2022/02/11 12:01:01;;;;;;;;;8.00;3.67;;;;;;;;4967284;28;47060;-84
2022/02/11 12:03:27;;;;;;;;;6.00;4.00;;;;;;;;4973110;28;45492;-84
2022/02/11 12:05:56;;;;;;;;;3.67;3.67;;;;;;;;4956672;28;45391;-84
2022/02/11 12:08:27;;;;;;;;;8.67;7.00;;;;;;;;4980773;28;45391;-84
2022/02/11 12:10:55;;;;;;;;;5.33;5.33;;;;;;;;4962682;28;45501;-84
2022/02/11 12:13:20;;;;;;;;;8.00;6.67;;;;;;;;4979480;28;45366;-84
2022/02/11 12:15:45;;;;;;;;;8.00;6.67;;;;;;;;4972498;28;45769;-84
2022/02/11 12:18:10;;;;;;;;;11.00;6.00;;;;;;;;4971839;28;45768;-84
2022/02/11 12:20:38;;;;;;;;;8.67;6.67;;;;;;;;4971883;28;46400;-84
2022/02/11 12:28:35;;;;;;;;;9.00;6.67;;;;;;;;4969865;28;45363;-84
2022/02/11 12:31:04;;;;;;;;;10.33;7.00;;;;;;;;4970955;28;45441;-84
2022/02/11 12:33:29;;;;;;;;;7.00;6.67;;;;;;;;4972144;28;45442;-84
2022/02/11 12:36:06;;;;;;;;;5.00;5.00;;;;;;;;4974845;28;45459;-84
2022/02/11 12:38:31;;;;;;;;;10.00;7.00;;;;;;;;4960310;28;45465;-85
2022/02/11 12:40:56;;;;;;;;;10.00;9.00;;;;;;;;4956195;28;46107;-84
2022/02/11 12:43:25;;;;;;;;;8.33;7.00;;;;;;;;4952887;28;45628;-85
2022/02/11 12:45:50;;;;;;;;;10.00;8.67;;;;;;;;4952578;28;45457;-84
2022/02/11 12:48:15;;;;;;;;;9.33;8.00;;;;;;;;4954763;28;45746;-84
2022/02/11 12:50:42;;;;;;;;;8.00;7.00;;;;;;;;4951643;28;46969;-83
2022/02/11 12:53:09;;;;;;;;;10.00;9.00;;;;;;;;4950386;28;46931;-84
2022/02/11 12:55:37;;;;;;;;;14.67;5.33;;;;;;;;4971015;28;45374;-84
2022/02/11 12:58:04;;;;;;;;;8.00;7.33;;;;;;;;4971275;28;45400;-84
2022/02/11 13:00:31;;;;;;;;;8.33;5.33;;;;;;;;4955208;28;48240;-84
2022/02/11 13:03:01;;;;;;;;;7.67;6.00;;;;;;;;4950705;28;46305;-84
2022/02/11 13:05:27;;;;;;;;;4.00;4.00;;;;;;;;4969636;28;45690;-84
2022/02/11 13:08:00;;;;;;;;;4.67;4.00;;;;;;;;4969062;28;45599;-84
2022/02/11 13:10:28;;;;;;;;;6.33;6.33;;;;;;;;4986719;28;48568;-84
2022/02/11 13:12:54;;;;;;;;;12.33;9.00;;;;;;;;4971836;28;45430;-84
2022/02/11 13:15:20;;;;;;;;;8.33;8.00;;;;;;;;4955548;28;45608;-84
2022/02/11 13:17:46;;;;;;;;;11.00;8.33;;;;;;;;4968257;28;45599;-84
2022/02/11 13:20:12;;;;;;;;;7.67;7.67;;;;;;;;4968986;28;46655;-84
2022/02/11 13:25:19;;;;;;;;;7.33;7.33;;;;;;;;5108056;27;45664;-83
2022/02/11 13:27:51;;;;;;;;;15.67;12.33;;;;;;;;5090873;27;45716;-83
2022/02/11 13:30:25;;;;;;;;;10.33;9.00;;;;;;;;5090785;27;45628;-83
2022/02/11 13:32:51;;;;;;;;;8.67;8.33;;;;;;;;5091654;27;45507;-83
2022/02/11 13:35:17;;;;;;;;;9.33;7.00;;;;;;;;5088840;27;47646;-83
2022/02/11 13:37:43;;;;;;;;;11.00;10.00;;;;;;;;5101466;27;45377;-83
2022/02/11 13:40:09;;;;;;;;;11.00;7.67;;;;;;;;5092722;27;45443;-83
2022/02/11 13:42:35;;;;;;;;;10.00;9.00;;;;;;;;5098407;27;45632;-83
2022/02/11 13:45:01;;;;;;;;;10.67;7.33;;;;;;;;5098249;27;46484;-84
2022/02/11 13:47:27;;;;;;;;;9.00;6.33;;;;;;;;5095817;27;45381;-84
2022/02/11 13:49:59;;;;;;;;;5.33;4.00;;;;;;;;5085836;27;45470;-84
2022/02/11 13:55:11;;;;;;;;;4.33;4.33;;;;;;;;5093794;27;45888;-84
2022/02/11 13:57:36;;;;;;;;;5.00;5.00;;;;;;;;5086155;27;45693;-95
2022/02/11 14:00:20;;;;;;;;;11.33;5.00;;;;;;;;5090759;27;45580;-88
2022/02/11 14:02:45;;;;;;;;;8.00;6.33;;;;;;;;5096047;27;45814;-88
2022/02/11 14:05:10;;;;;;;;;4.67;3.00;;;;;;;;5090310;27;46963;-87
2022/02/11 14:07:35;;;;;;;;;6.67;6.67;;;;;;;;5100158;27;45492;-84
2022/02/11 14:10:16;;;;;;;;;8.00;4.33;;;;;;;;5095360;27;45298;-84
2022/02/11 14:12:41;;;;;;;;;7.33;4.67;;;;;;;;5089864;27;45473;-83
2022/02/11 14:15:07;;;;;;;;;6.33;5.33;;;;;;;;5090606;27;45357;-85
2022/02/11 14:17:34;;;;;;;;;5.33;4.00;;;;;;;;5092098;27;45583;-83
2022/02/11 14:20:00;;;;;;;;;10.00;5.67;;;;;;;;5086706;27;45565;-83
2022/02/11 14:22:25;;;;;;;;;4.00;4.00;;;;;;;;5088134;27;45558;-83
2022/02/11 14:24:50;;;;;;;;;3.67;3.67;;;;;;;;5101248;27;46355;-83
2022/02/11 14:27:16;;;;;;;;;8.00;6.00;;;;;;;;5090688;27;45560;-83
2022/02/11 14:29:41;;;;;;;;;6.00;4.67;;;;;;;;5080252;27;45443;-83
2022/02/11 14:32:06;;;;;;;;;9.00;4.00;;;;;;;;5089212;27;45404;-83
2022/02/11 14:34:32;;;;;;;;;4.00;4.00;;;;;;;;5086189;27;47940;-83
2022/02/11 14:36:57;;;;;;;;;4.33;4.00;;;;;;;;5076704;27;45638;-83
2022/02/11 14:39:23;;;;;;;;;5.00;5.00;;;;;;;;5076568;27;45426;-83
2022/02/11 14:41:49;;;;;;;;;4.00;4.00;;;;;;;;5073418;27;45744;-83
2022/02/11 14:44:18;;;;;;;;;6.33;4.00;;;;;;;;5069133;27;47238;-83
2022/02/11 14:46:44;;;;;;;;;4.33;4.00;;;;;;;;5074027;27;45460;-83
2022/02/11 14:49:09;;;;;;;;;8.33;6.00;;;;;;;;5084641;27;45421;-83
2022/02/11 14:51:35;;;;;;;;;6.67;6.67;;;;;;;;5069466;27;45397;-83
2022/02/11 14:54:03;;;;;;;;;8.33;5.00;;;;;;;;5064384;27;53842;-83
2022/02/11 14:56:28;;;;;;;;;8.00;6.67;;;;;;;;5063416;27;45452;-83
2022/02/11 14:58:54;;;;;;;;;8.33;6.33;;;;;;;;5073146;27;45475;-82
2022/02/11 15:01:19;;;;;;;;;7.00;7.00;;;;;;;;5073240;27;45453;-83
2022/02/11 15:03:44;;;;;;;;;4.00;4.00;;;;;;;;5069352;27;45472;-83
2022/02/11 15:06:10;;;;;;;;;7.33;5.33;;;;;;;;5063516;27;45768;-83
2022/02/11 15:08:35;;;;;;;;;3.67;3.67;;;;;;;;5069812;27;45414;-83
2022/02/11 15:11:01;;;;;;;;;5.67;4.00;;;;;;;;5068910;27;45519;-83
2022/02/11 15:13:26;;;;;;;;;7.00;4.67;;;;;;;;5070718;27;47169;-84
2022/02/11 15:15:52;;;;;;;;;6.33;5.00;;;;;;;;5083548;27;45744;-82
2022/02/11 15:18:17;;;;;;;;;8.67;5.67;;;;;;;;5066188;27;45611;-82
2022/02/11 15:20:44;;;;;;;;;8.00;5.67;;;;;;;;5068328;27;45631;-83
2022/02/11 15:23:10;;;;;;;;;5.00;4.67;;;;;;;;5070178;27;46433;-84
2022/02/11 15:25:35;;;;;;;;;8.00;5.67;;;;;;;;5075275;27;45767;-83
2022/02/11 15:28:00;;;;;;;;;6.67;5.00;;;;;;;;5077926;27;45426;-82
2022/02/11 15:30:26;;;;;;;;;5.67;5.00;;;;;;;;5078918;27;45702;-82
2022/02/11 15:32:51;;;;;;;;;5.33;4.00;;;;;;;;5077500;27;47798;-83
2022/02/11 15:35:16;;;;;;;;;3.00;3.00;;;;;;;;5081885;27;45511;-83
2022/02/11 15:37:42;;;;;;;;;8.67;5.67;;;;;;;;5080680;27;45688;-83
2022/02/11 15:40:07;;;;;;;;;7.33;5.33;;;;;;;;5085698;27;45485;-82
2022/02/11 15:42:34;;;;;;;;;4.00;4.00;;;;;;;;5085578;27;46133;-81
2022/02/11 15:44:59;;;;;;;;;5.33;5.33;;;;;;;;5077249;27;45559;-82
2022/02/11 15:47:25;;;;;;;;;7.33;4.00;;;;;;;;5076495;27;45396;-82
2022/02/11 15:49:51;;;;;;;;;4.67;4.67;;;;;;;;5077501;27;45617;-82
2022/02/11 15:52:16;;;;;;;;;7.33;4.67;;;;;;;;5082046;27;46802;-83
2022/02/11 15:54:41;;;;;;;;;5.00;4.00;;;;;;;;5080457;27;45819;-81
2022/02/11 15:57:06;;;;;;;;;4.00;3.00;;;;;;;;5077704;27;45422;-83
2022/02/11 15:59:32;;;;;;;;;4.00;2.00;;;;;;;;5076654;27;45648;-82
2022/02/11 16:01:57;;;;;;;;;5.67;4.00;;;;;;;;5078868;27;47469;-82
2022/02/11 16:04:22;;;;;;;;;4.00;4.00;;;;;;;;5088615;27;45368;-81
2022/02/11 16:06:47;;;;;;;;;4.00;4.00;;;;;;;;5090357;27;44919;-82
2022/02/11 16:09:13;;;;;;;;;8.00;8.00;;;;;;;;5078016;27;45547;-81
2022/02/11 16:11:38;;;;;;;;;4.00;4.00;;;;;;;;5079169;27;47357;-84
2022/02/11 16:14:03;;;;;;;;;4.33;4.00;;;;;;;;5084122;27;45527;-83
2022/02/11 16:16:28;;;;;;;;;3.67;3.67;;;;;;;;5068939;27;46571;-83
2022/02/11 16:18:54;;;;;;;;;8.00;5.33;;;;;;;;5088943;27;45651;-83
2022/02/11 16:21:19;;;;;;;;;8.33;7.33;;;;;;;;5077169;27;46174;-83
2022/02/11 16:23:44;;;;;;;;;7.33;6.67;;;;;;;;5072616;27;45546;-83
2022/02/11 16:26:10;;;;;;;;;11.00;6.33;;;;;;;;5071274;27;45484;-83
2022/02/11 16:28:36;;;;;;;;;8.67;5.33;;;;;;;;5070579;27;45620;-83
2022/02/11 16:31:18;;;;;;;;;10.00;8.67;;;;;;;;5073686;27;48083;-83
2022/02/11 16:33:44;;;;;;;;;6.00;6.00;;;;;;;;5064635;27;45954;-83
2022/02/11 16:36:09;;;;;;;;;12.00;7.33;;;;;;;;5071419;27;45405;-83
2022/02/11 16:38:35;;;;;;;;;14.67;11.33;;;;;;;;5065272;27;45477;-83
2022/02/11 16:41:01;;;;;;;;;17.33;9.33;;;;;;;;5066557;27;47449;-83
2022/02/11 16:43:26;;;;;;;;;8.00;8.00;;;;;;;;5069863;27;45589;-83
2022/02/11 16:45:51;;;;;;;;;7.67;7.67;;;;;;;;5069525;27;45532;-83
2022/02/11 16:48:17;;;;;;;;;12.00;7.67;;;;;;;;5070408;27;45417;-83
2022/02/11 16:50:43;;;;;;;;;8.33;7.00;;;;;;;;5075198;27;45482;-83
2022/02/11 16:53:08;;;;;;;;;8.00;8.00;;;;;;;;5064970;27;45648;-83
2022/02/11 16:55:34;;;;;;;;;8.67;7.67;;;;;;;;5064572;27;46051;-83
2022/02/11 16:57:59;;;;;;;;;11.33;6.33;;;;;;;;5068746;27;45740;-83
2022/02/11 17:00:24;;;;;;;;;7.67;6.67;;;;;;;;5070176;27;45792;-83
2022/02/11 17:02:49;;;;;;;;;9.00;8.00;;;;;;;;5069060;27;45515;-83
2022/02/11 17:05:21;;;;;;;;;8.67;7.00;;;;;;;;5073086;27;45657;-83
2022/02/11 17:07:46;;;;;;;;;7.33;6.67;;;;;;;;5078559;27;45601;-83
2022/02/11 17:10:13;;;;;;;;;9.33;9.00;;;;;;;;5080706;27;48323;-83
2022/02/11 17:12:38;;;;;;;;;8.00;8.00;;;;;;;;5069520;27;45915;-83
2022/02/11 17:15:04;;;;;;;;;12.67;10.33;;;;;;;;5069295;27;45599;-83
2022/02/11 17:17:29;;;;;;;;;9.00;8.00;;;;;;;;5063114;27;45502;-83
2022/02/11 17:19:54;;;;;;;;;12.00;9.33;;;;;;;;5066851;27;45571;-83
2022/02/11 17:22:19;;;;;;;;;8.67;8.33;;;;;;;;5068250;27;45687;-83
2022/02/11 17:24:46;;;;;;;;;17.00;17.00;;;;;;;;5065920;27;45715;-83
2022/02/11 17:27:11;;;;;;;;;15.33;14.00;;;;;;;;5071219;27;45523;-83
2022/02/11 17:29:36;;;;;;;;;17.00;14.50;;;;;;;;5076001;27;45535;-83
2022/02/11 17:32:02;;;;;;;;;16.33;13.67;;;;;;;;5065380;27;45551;-83
2022/02/11 17:34:27;;;;;;;;;38.00;30.50;;;;;;;;5075868;27;45574;-83
2022/02/11 17:36:52;;;;;;;;;22.50;21.75;;;;;;;;5071054;27;45514;-84
2022/02/11 17:39:17;;;;;;;;;15.75;15.75;;;;;;;;5080767;27;45415;-83
2022/02/11 17:41:42;;;;;;;;;25.25;21.75;;;;;;;;5079645;27;45639;-83
2022/02/11 17:44:08;;;;;;;;;30.25;28.50;;;;;;;;5072315;27;45725;-83
2022/02/11 17:46:34;;;;;;;;;26.25;25.00;;;;;;;;5067047;27;45821;-83
2022/02/11 17:49:00;;;;;;;;;26.00;24.50;;;;;;;;5081068;27;45647;-83
2022/02/11 17:51:25;;;;;;;;;30.25;23.25;;;;;;;;5074398;27;46684;-83
2022/02/11 17:53:51;;;;;;;;;17.50;17.50;;;;;;;;5075702;27;45524;-83
2022/02/11 17:56:16;;;;;;;;;20.00;14.00;;;;;;;;5067218;27;45494;-83
2022/02/11 17:58:42;;;;;;;;;20.75;20.50;;;;;;;;5068989;27;45706;-83
2022/02/11 18:01:07;;;;;;;;;21.25;19.50;;;;;;;;5076713;27;45571;-83
2022/02/11 18:03:32;;;;;;;;;26.00;22.25;;;;;;;;5071135;27;45455;-83
2022/02/11 18:05:58;;;;;;;;;29.00;22.25;;;;;;;;5071871;27;45334;-83
2022/02/11 18:08:24;;;;;;;;;30.75;23.75;;;;;;;;5069616;27;47295;-83
2022/02/11 18:10:50;;;;;;;;;29.75;26.00;;;;;;;;5071971;27;45244;-83
2022/02/11 18:13:15;;;;;;;;;31.00;28.50;;;;;;;;5061058;27;45531;-84
2022/02/11 18:15:41;;;;;;;;;32.00;30.50;;;;;;;;5070697;27;45478;-83
2022/02/11 18:18:06;;;;;;;;;29.00;23.75;;;;;;;;5064884;28;47711;-84
2022/02/11 18:20:31;;;;;;;;;25.25;23.75;;;;;;;;5067777;27;45403;-84
2022/02/11 18:22:57;;;;;;;;;14.25;14.25;;;;;;;;5069336;27;46443;-84